sensor_id;sensor_type;location;lat;lon;timestamp;pressure;altitude;pressure_sealevel;temperature;humidity
53932;BME280;39844;52.496;13.482;2023-04-08T00:02:15;101865.97;;;5.84;100.00
53932;BME280;39844;52.496;13.482;2023-04-08T00:04:40;101874.72;;;5.85;100.00
53932;BME280;39844;52.496;13.482;2023-04-08T00:07:07;101873.78;;;5.84;100.00
53932;BME280;39844;52.496;13.482;2023-04-08T00:09:32;101880.78;;;5.85;100.00
53932;BME280;39844;52.496;13.482;2023-04-08T00:11:58;101866.91;;;5.85;100.00
53932;BME280;39844;52.496;13.482;2023-04-08T00:14:23;101871.25;;;5.86;100.00
53932;BME280;39844;52.496;13.482;2023-04-08T00:16:48;101870.38;;;5.85;100.00
53932;BME280;39844;52.496;13.482;2023-04-08T00:19:14;101874.75;;;5.86;100.00
53932;BME280;39844;52.496;13.482;2023-04-08T00:21:39;101864.28;;;5.85;100.00
53932;BME280;39844;52.496;13.482;2023-04-08T00:24:05;101866.03;;;5.86;100.00
53932;BME280;39844;52.496;13.482;2023-04-08T00:26:30;101864.34;;;5.86;100.00
53932;BME280;39844;52.496;13.482;2023-04-08T00:28:55;101869.53;;;5.86;100.00
53932;BME280;39844;52.496;13.482;2023-04-08T00:31:20;101873.84;;;5.86;100.00
53932;BME280;39844;52.496;13.482;2023-04-08T00:33:46;101885.19;;;5.86;100.00
53932;BME280;39844;52.496;13.482;2023-04-08T00:36:11;101878.09;;;5.84;100.00
53932;BME280;39844;52.496;13.482;2023-04-08T00:38:36;101877.22;;;5.83;100.00
53932;BME280;39844;52.496;13.482;2023-04-08T00:41:02;101872.00;;;5.83;100.00
53932;BME280;39844;52.496;13.482;2023-04-08T00:43:27;101866.75;;;5.82;100.00
53932;BME280;39844;52.496;13.482;2023-04-08T00:45:52;101867.66;;;5.82;100.00
53932;BME280;39844;52.496;13.482;2023-04-08T00:48:18;101867.66;;;5.82;100.00
53932;BME280;39844;52.496;13.482;2023-04-08T00:50:43;101865.97;;;5.84;100.00
53932;BME280;39844;52.496;13.482;2023-04-08T00:53:08;101858.09;;;5.83;100.00
53932;BME280;39844;52.496;13.482;2023-04-08T00:55:34;101857.22;;;5.82;100.00
53932;BME280;39844;52.496;13.482;2023-04-08T00:57:59;101862.44;;;5.82;100.00
53932;BME280;39844;52.496;13.482;2023-04-08T01:00:25;101875.47;;;5.82;100.00
53932;BME280;39844;52.496;13.482;2023-04-08T01:06:12;101879.06;;;5.86;100.00
53932;BME280;39844;52.496;13.482;2023-04-08T01:08:40;101875.56;;;5.85;100.00
53932;BME280;39844;52.496;13.482;2023-04-08T01:11:09;101872.16;;;5.86;100.00
53932;BME280;39844;52.496;13.482;2023-04-08T01:13:39;101874.75;;;5.86;100.00
53932;BME280;39844;52.496;13.482;2023-04-08T01:16:08;101878.28;;;5.88;100.00
53932;BME280;39844;52.496;13.482;2023-04-08T01:18:35;101867.88;;;5.88;100.00
53932;BME280;39844;52.496;13.482;2023-04-08T01:21:02;101884.38;;;5.89;100.00
53932;BME280;39844;52.496;13.482;2023-04-08T01:23:45;101893.91;;;5.88;100.00
53932;BME280;39844;52.496;13.482;2023-04-08T01:26:23;101892.16;;;5.87;100.00
53932;BME280;39844;52.496;13.482;2023-04-08T01:28:52;101891.31;;;5.88;100.00
53932;BME280;39844;52.496;13.482;2023-04-08T01:31:19;101886.97;;;5.87;100.00
53932;BME280;39844;52.496;13.482;2023-04-08T01:33:47;101883.47;;;5.87;100.00
53932;BME280;39844;52.496;13.482;2023-04-08T01:36:13;101891.28;;;5.87;100.00
53932;BME280;39844;52.496;13.482;2023-04-08T01:38:39;101881.75;;;5.87;100.00
53932;BME280;39844;52.496;13.482;2023-04-08T01:41:05;101890.38;;;5.86;100.00
53932;BME280;39844;52.496;13.482;2023-04-08T01:43:33;101885.19;;;5.86;100.00
53932;BME280;39844;52.496;13.482;2023-04-08T01:46:00;101894.78;;;5.87;100.00
53932;BME280;39844;52.496;13.482;2023-04-08T01:48:26;101893.00;;;5.86;100.00
53932;BME280;39844;52.496;13.482;2023-04-08T01:50:53;101893.03;;;5.88;100.00
53932;BME280;39844;52.496;13.482;2023-04-08T01:53:19;101890.50;;;5.89;100.00
53932;BME280;39844;52.496;13.482;2023-04-08T01:55:45;101893.91;;;5.88;100.00
53932;BME280;39844;52.496;13.482;2023-04-08T01:58:17;101892.22;;;5.89;100.00
53932;BME280;39844;52.496;13.482;2023-04-08T02:00:44;101884.38;;;5.89;100.00
53932;BME280;39844;52.496;13.482;2023-04-08T02:03:13;101883.50;;;5.88;100.00
53932;BME280;39844;52.496;13.482;2023-04-08T02:05:41;101893.91;;;5.88;100.00
53932;BME280;39844;52.496;13.482;2023-04-08T02:08:06;101905.25;;;5.89;100.00
53932;BME280;39844;52.496;13.482;2023-04-08T02:10:31;101899.13;;;5.88;100.00
53932;BME280;39844;52.496;13.482;2023-04-08T02:12:57;101906.94;;;5.88;100.00
53932;BME280;39844;52.496;13.482;2023-04-08T02:15:23;101907.88;;;5.90;100.00
53932;BME280;39844;52.496;13.482;2023-04-08T02:18:04;101910.47;;;5.90;100.00
53932;BME280;39844;52.496;13.482;2023-04-08T02:20:37;101905.28;;;5.90;100.00
53932;BME280;39844;52.496;13.482;2023-04-08T02:23:08;101913.97;;;5.91;100.00
53932;BME280;39844;52.496;13.482;2023-04-08T02:25:37;101912.16;;;5.88;100.00
53932;BME280;39844;52.496;13.482;2023-04-08T02:28:06;101908.66;;;5.88;100.00
53932;BME280;39844;52.496;13.482;2023-04-08T02:30:34;101914.75;;;5.88;100.00
53932;BME280;39844;52.496;13.482;2023-04-08T02:33:02;101906.94;;;5.88;100.00
53932;BME280;39844;52.496;13.482;2023-04-08T02:35:28;101912.22;;;5.90;100.00
53932;BME280;39844;52.496;13.482;2023-04-08T02:37:54;101913.06;;;5.89;100.00
53932;BME280;39844;52.496;13.482;2023-04-08T02:40:27;101914.75;;;5.88;100.00
53932;BME280;39844;52.496;13.482;2023-04-08T02:42:53;101918.31;;;5.90;100.00
53932;BME280;39844;52.496;13.482;2023-04-08T02:45:19;101922.69;;;5.91;100.00
53932;BME280;39844;52.496;13.482;2023-04-08T02:47:44;101930.50;;;5.91;100.00
53932;BME280;39844;52.496;13.482;2023-04-08T02:50:10;101930.56;;;5.93;100.00
53932;BME280;39844;52.496;13.482;2023-04-08T02:52:35;101922.72;;;5.93;100.00
53932;BME280;39844;52.496;13.482;2023-04-08T02:55:00;101938.44;;;5.94;100.00
53932;BME280;39844;52.496;13.482;2023-04-08T02:57:25;101934.06;;;5.93;100.00
53932;BME280;39844;52.496;13.482;2023-04-08T02:59:51;101937.53;;;5.94;100.00
53932;BME280;39844;52.496;13.482;2023-04-08T03:02:16;101935.84;;;5.94;100.00
53932;BME280;39844;52.496;13.482;2023-04-08T03:04:41;101936.72;;;5.95;100.00
53932;BME280;39844;52.496;13.482;2023-04-08T03:07:07;101933.22;;;5.94;100.00
53932;BME280;39844;52.496;13.482;2023-04-08T03:09:32;101934.94;;;5.94;100.00
53932;BME280;39844;52.496;13.482;2023-04-08T03:11:57;101932.38;;;5.95;100.00
53932;BME280;39844;52.496;13.482;2023-04-08T03:14:22;101935.84;;;5.94;100.00
53932;BME280;39844;52.496;13.482;2023-04-08T03:16:48;101934.94;;;5.94;100.00
53932;BME280;39844;52.496;13.482;2023-04-08T03:19:13;101936.72;;;5.95;100.00
53932;BME280;39844;52.496;13.482;2023-04-08T03:21:38;101941.88;;;5.93;100.00
53932;BME280;39844;52.496;13.482;2023-04-08T03:24:04;101950.56;;;5.94;100.00
53932;BME280;39844;52.496;13.482;2023-04-08T03:26:29;101948.88;;;5.94;100.00
53932;BME280;39844;52.496;13.482;2023-04-08T03:28:54;101946.25;;;5.94;100.00
53932;BME280;39844;52.496;13.482;2023-04-08T03:31:20;101954.06;;;5.94;100.00
53932;BME280;39844;52.496;13.482;2023-04-08T03:33:45;101953.22;;;5.95;100.00
53932;BME280;39844;52.496;13.482;2023-04-08T03:36:11;101951.47;;;5.94;100.00
53932;BME280;39844;52.496;13.482;2023-04-08T03:38:36;101954.91;;;5.93;100.00
53932;BME280;39844;52.496;13.482;2023-04-08T03:41:01;101953.13;;;5.92;100.00
53932;BME280;39844;52.496;13.482;2023-04-08T03:43:27;101959.28;;;5.94;100.00
53932;BME280;39844;52.496;13.482;2023-04-08T03:45:52;101961.88;;;5.94;100.00
53932;BME280;39844;52.496;13.482;2023-04-08T03:48:17;101960.09;;;5.93;100.00
53932;BME280;39844;52.496;13.482;2023-04-08T03:50:42;101960.19;;;5.95;100.00
53932;BME280;39844;52.496;13.482;2023-04-08T03:53:08;101966.25;;;5.95;100.00
53932;BME280;39844;52.496;13.482;2023-04-08T03:55:33;101968.84;;;5.95;100.00
53932;BME280;39844;52.496;13.482;2023-04-08T03:57:58;101969.81;;;5.97;100.00
53932;BME280;39844;52.496;13.482;2023-04-08T04:00:24;101975.84;;;5.96;100.00
53932;BME280;39844;52.496;13.482;2023-04-08T04:02:49;101976.75;;;5.97;100.00
53932;BME280;39844;52.496;13.482;2023-04-08T04:05:14;101973.28;;;5.98;100.00
53932;BME280;39844;52.496;13.482;2023-04-08T04:07:40;101979.38;;;5.98;100.00
53932;BME280;39844;52.496;13.482;2023-04-08T04:10:05;101972.44;;;5.97;100.00
53932;BME280;39844;52.496;13.482;2023-04-08T04:12:31;101981.09;;;5.98;100.00
53932;BME280;39844;52.496;13.482;2023-04-08T04:14:56;101975.06;;;5.99;100.00
53932;BME280;39844;52.496;13.482;2023-04-08T04:17:21;101975.97;;;5.99;100.00
53932;BME280;39844;52.496;13.482;2023-04-08T04:19:46;101980.31;;;6.00;100.00
53932;BME280;39844;52.496;13.482;2023-04-08T04:22:12;101991.59;;;5.99;100.00
53932;BME280;39844;52.496;13.482;2023-04-08T04:24:37;101997.78;;;6.03;100.00
53932;BME280;39844;52.496;13.482;2023-04-08T04:27:02;101995.13;;;6.01;100.00
53932;BME280;39844;52.496;13.482;2023-04-08T04:29:30;102003.91;;;6.03;100.00
53932;BME280;39844;52.496;13.482;2023-04-08T04:31:55;102004.81;;;6.05;100.00
53932;BME280;39844;52.496;13.482;2023-04-08T04:34:20;101998.78;;;6.06;100.00
53932;BME280;39844;52.496;13.482;2023-04-08T04:36:46;102000.56;;;6.07;100.00
53932;BME280;39844;52.496;13.482;2023-04-08T04:39:11;102012.75;;;6.08;100.00
53932;BME280;39844;52.496;13.482;2023-04-08T04:41:36;102012.75;;;6.08;100.00
53932;BME280;39844;52.496;13.482;2023-04-08T04:44:02;102019.75;;;6.09;100.00
53932;BME280;39844;52.496;13.482;2023-04-08T04:46:27;102018.03;;;6.10;100.00
53932;BME280;39844;52.496;13.482;2023-04-08T04:48:54;102024.97;;;6.09;100.00
53932;BME280;39844;52.496;13.482;2023-04-08T04:51:20;102026.72;;;6.10;100.00
53932;BME280;39844;52.496;13.482;2023-04-08T04:53:45;102020.56;;;6.08;100.00
53932;BME280;39844;52.496;13.482;2023-04-08T04:56:10;102031.84;;;6.07;100.00
53932;BME280;39844;52.496;13.482;2023-04-08T04:58:35;102022.28;;;6.08;100.00
53932;BME280;39844;52.496;13.482;2023-04-08T05:01:01;102031.84;;;6.07;100.00
53932;BME280;39844;52.496;13.482;2023-04-08T05:03:26;102035.28;;;6.06;100.00
53932;BME280;39844;52.496;13.482;2023-04-08T05:05:55;102033.56;;;6.07;100.00
53932;BME280;39844;52.496;13.482;2023-04-08T05:08:20;102034.47;;;6.07;100.00
53932;BME280;39844;52.496;13.482;2023-04-08T05:10:46;102038.78;;;6.07;100.00
53932;BME280;39844;52.496;13.482;2023-04-08T05:13:11;102033.50;;;6.05;100.00
53932;BME280;39844;52.496;13.482;2023-04-08T05:15:36;102034.34;;;6.04;100.00
53932;BME280;39844;52.496;13.482;2023-04-08T05:18:02;102043.91;;;6.05;100.00
53932;BME280;39844;52.496;13.482;2023-04-08T05:20:27;102043.16;;;6.08;100.00
53932;BME280;39844;52.496;13.482;2023-04-08T05:22:52;102050.13;;;6.09;100.00
53932;BME280;39844;52.496;13.482;2023-04-08T05:25:18;102038.94;;;6.11;100.00
53932;BME280;39844;52.496;13.482;2023-04-08T05:27:43;102039.81;;;6.12;100.00
53932;BME280;39844;52.496;13.482;2023-04-08T05:30:08;102035.56;;;6.14;100.00
53932;BME280;39844;52.496;13.482;2023-04-08T05:32:34;102040.81;;;6.15;100.00
53932;BME280;39844;52.496;13.482;2023-04-08T05:35:01;102053.03;;;6.16;100.00
53932;BME280;39844;52.496;13.482;2023-04-08T05:37:27;102064.38;;;6.18;100.00
53932;BME280;39844;52.496;13.482;2023-04-08T05:39:52;102074.00;;;6.19;100.00
53932;BME280;39844;52.496;13.482;2023-04-08T05:42:17;102068.78;;;6.19;100.00
53932;BME280;39844;52.496;13.482;2023-04-08T05:44:42;102073.31;;;6.25;100.00
53932;BME280;39844;52.496;13.482;2023-04-08T05:47:08;102082.13;;;6.28;100.00
53932;BME280;39844;52.496;13.482;2023-04-08T05:49:34;102078.81;;;6.32;100.00
53932;BME280;39844;52.496;13.482;2023-04-08T05:51:59;102074.53;;;6.34;100.00
53932;BME280;39844;52.496;13.482;2023-04-08T05:54:24;102078.06;;;6.36;100.00
53932;BME280;39844;52.496;13.482;2023-04-08T05:56:49;102075.53;;;6.38;100.00
53932;BME280;39844;52.496;13.482;2023-04-08T05:59:15;102085.25;;;6.44;100.00
53932;BME280;39844;52.496;13.482;2023-04-08T06:01:40;102081.03;;;6.47;100.00
53932;BME280;39844;52.496;13.482;2023-04-08T06:04:05;102085.47;;;6.50;100.00
53932;BME280;39844;52.496;13.482;2023-04-08T06:06:31;102084.69;;;6.52;100.00
53932;BME280;39844;52.496;13.482;2023-04-08T06:08:56;102080.53;;;6.57;100.00
53932;BME280;39844;52.496;13.482;2023-04-08T06:11:21;102081.44;;;6.59;100.00
53932;BME280;39844;52.496;13.482;2023-04-08T06:13:46;102090.28;;;6.63;100.00
53932;BME280;39844;52.496;13.482;2023-04-08T06:16:13;102096.53;;;6.68;100.00
53932;BME280;39844;52.496;13.482;2023-04-08T06:18:39;102087.81;;;6.67;100.00
53932;BME280;39844;52.496;13.482;2023-04-08T06:21:05;102086.28;;;6.74;100.00
53932;BME280;39844;52.496;13.482;2023-04-08T06:23:30;102089.91;;;6.77;100.00
53932;BME280;39844;52.496;13.482;2023-04-08T06:25:55;102098.63;;;6.78;100.00
53932;BME280;39844;52.496;13.482;2023-04-08T06:28:20;102103.00;;;6.79;100.00
53932;BME280;39844;52.496;13.482;2023-04-08T06:30:46;102098.78;;;6.82;100.00
53932;BME280;39844;52.496;13.482;2023-04-08T06:33:11;102108.38;;;6.83;100.00
53932;BME280;39844;52.496;13.482;2023-04-08T06:35:36;102104.09;;;6.85;100.00
53932;BME280;39844;52.496;13.482;2023-04-08T06:38:02;102107.78;;;6.92;100.00
53932;BME280;39844;52.496;13.482;2023-04-08T06:40:28;102124.47;;;6.97;100.00
53932;BME280;39844;52.496;13.482;2023-04-08T06:42:53;102119.44;;;7.02;100.00
53932;BME280;39844;52.496;13.482;2023-04-08T06:45:18;102120.41;;;7.05;100.00
53932;BME280;39844;52.496;13.482;2023-04-08T06:47:44;102126.66;;;7.10;100.00
53932;BME280;39844;52.496;13.482;2023-04-08T06:50:09;102128.63;;;7.17;100.00
53932;BME280;39844;52.496;13.482;2023-04-08T06:52:34;102133.13;;;7.21;100.00
53932;BME280;39844;52.496;13.482;2023-04-08T06:55:00;102143.69;;;7.24;100.00
53932;BME280;39844;52.496;13.482;2023-04-08T06:57:25;102142.94;;;7.28;100.00
53932;BME280;39844;52.496;13.482;2023-04-08T06:59:50;102140.31;;;7.28;100.00
53932;BME280;39844;52.496;13.482;2023-04-08T07:02:16;102135.97;;;7.29;100.00
53932;BME280;39844;52.496;13.482;2023-04-08T07:04:41;102146.59;;;7.35;100.00
53932;BME280;39844;52.496;13.482;2023-04-08T07:07:06;102145.91;;;7.40;100.00
53932;BME280;39844;52.496;13.482;2023-04-08T07:09:32;102147.81;;;7.44;100.00
53932;BME280;39844;52.496;13.482;2023-04-08T07:11:57;102148.88;;;7.51;100.00
53932;BME280;39844;52.496;13.482;2023-04-08T07:14:22;102148.28;;;7.59;100.00
53932;BME280;39844;52.496;13.482;2023-04-08T07:16:47;102150.25;;;7.67;100.00
53932;BME280;39844;52.496;13.482;2023-04-08T07:19:13;102146.13;;;7.75;100.00
53932;BME280;39844;52.496;13.482;2023-04-08T07:21:38;102148.00;;;7.79;98.82
53932;BME280;39844;52.496;13.482;2023-04-08T07:24:03;102158.50;;;7.80;98.86
53932;BME280;39844;52.496;13.482;2023-04-08T07:26:29;102152.50;;;7.83;99.16
53932;BME280;39844;52.496;13.482;2023-04-08T07:28:54;102160.47;;;7.87;99.51
53932;BME280;39844;52.496;13.482;2023-04-08T07:31:19;102157.88;;;7.89;98.93
53932;BME280;39844;52.496;13.482;2023-04-08T07:33:45;102169.25;;;7.91;98.73
53932;BME280;39844;52.496;13.482;2023-04-08T07:36:11;102165.03;;;7.94;98.60
53932;BME280;39844;52.496;13.482;2023-04-08T07:38:38;102174.56;;;7.92;98.18
53932;BME280;39844;52.496;13.482;2023-04-08T07:41:03;102169.34;;;7.94;97.86
53932;BME280;39844;52.496;13.482;2023-04-08T07:43:32;102172.91;;;7.96;97.81
53932;BME280;39844;52.496;13.482;2023-04-08T07:46:02;102174.69;;;7.97;97.25
53932;BME280;39844;52.496;13.482;2023-04-08T07:48:29;102174.78;;;8.00;97.45
53932;BME280;39844;52.496;13.482;2023-04-08T07:50:54;102175.09;;;8.10;98.11
53932;BME280;39844;52.496;13.482;2023-04-08T07:53:19;102179.78;;;8.22;98.21
53932;BME280;39844;52.496;13.482;2023-04-08T07:55:45;102178.50;;;8.36;97.99
53932;BME280;39844;52.496;13.482;2023-04-08T07:58:10;102187.38;;;8.41;96.42
53932;BME280;39844;52.496;13.482;2023-04-08T08:00:35;102185.69;;;8.43;94.70
53932;BME280;39844;52.496;13.482;2023-04-08T08:03:00;102185.00;;;8.50;95.63
53932;BME280;39844;52.496;13.482;2023-04-08T08:05:26;102182.72;;;8.62;94.63
53932;BME280;39844;52.496;13.482;2023-04-08T08:07:51;102181.84;;;8.62;92.42
53932;BME280;39844;52.496;13.482;2023-04-08T08:10:16;102188.84;;;8.63;92.15
53932;BME280;39844;52.496;13.482;2023-04-08T08:12:42;102193.19;;;8.62;92.23
53932;BME280;39844;52.496;13.482;2023-04-08T08:15:10;102189.81;;;8.66;92.42
53932;BME280;39844;52.496;13.482;2023-04-08T08:17:36;102191.34;;;8.58;90.70
53932;BME280;39844;52.496;13.482;2023-04-08T08:20:01;102180.97;;;8.61;93.00
53932;BME280;39844;52.496;13.482;2023-04-08T08:22:26;102189.91;;;8.69;93.69
53932;BME280;39844;52.496;13.482;2023-04-08T08:24:56;102192.84;;;8.81;93.45
53932;BME280;39844;52.496;13.482;2023-04-08T08:27:21;102196.50;;;8.88;92.30
53932;BME280;39844;52.496;13.482;2023-04-08T08:29:46;102198.31;;;8.90;90.86
53932;BME280;39844;52.496;13.482;2023-04-08T08:32:12;102199.28;;;8.94;89.89
53932;BME280;39844;52.496;13.482;2023-04-08T08:34:37;102199.41;;;8.99;90.55
53932;BME280;39844;52.496;13.482;2023-04-08T08:37:02;102212.81;;;9.11;90.41
53932;BME280;39844;52.496;13.482;2023-04-08T08:39:27;102207.84;;;9.21;90.39
53932;BME280;39844;52.496;13.482;2023-04-08T08:41:53;102206.50;;;9.37;89.86
53932;BME280;39844;52.496;13.482;2023-04-08T08:44:18;102210.41;;;9.52;87.91
53932;BME280;39844;52.496;13.482;2023-04-08T08:46:45;102207.91;;;9.59;87.47
53932;BME280;39844;52.496;13.482;2023-04-08T08:49:11;102211.50;;;9.62;86.06
53932;BME280;39844;52.496;13.482;2023-04-08T08:51:38;102214.00;;;9.58;85.36
53932;BME280;39844;52.496;13.482;2023-04-08T08:54:04;102207.81;;;9.54;85.53
53932;BME280;39844;52.496;13.482;2023-04-08T08:56:29;102220.06;;;9.55;86.69
53932;BME280;39844;52.496;13.482;2023-04-08T08:58:56;102219.06;;;9.50;86.43
53932;BME280;39844;52.496;13.482;2023-04-08T09:01:37;102218.06;;;9.45;87.08
53932;BME280;39844;52.496;13.482;2023-04-08T09:04:12;102221.50;;;9.42;87.07
53932;BME280;39844;52.496;13.482;2023-04-08T09:06:38;102220.59;;;9.40;86.78
53932;BME280;39844;52.496;13.482;2023-04-08T09:09:04;102228.31;;;9.36;87.39
53932;BME280;39844;52.496;13.482;2023-04-08T09:11:30;102221.31;;;9.35;87.42
53932;BME280;39844;52.496;13.482;2023-04-08T09:13:56;102230.13;;;9.38;87.75
53932;BME280;39844;52.496;13.482;2023-04-08T09:16:21;102236.22;;;9.37;86.60
53932;BME280;39844;52.496;13.482;2023-04-08T09:18:47;102245.72;;;9.32;85.09
53932;BME280;39844;52.496;13.482;2023-04-08T09:21:13;102243.13;;;9.34;86.20
53932;BME280;39844;52.496;13.482;2023-04-08T09:23:48;102244.78;;;9.30;85.82
53932;BME280;39844;52.496;13.482;2023-04-08T09:26:15;102249.06;;;9.27;85.36
53932;BME280;39844;52.496;13.482;2023-04-08T09:28:43;102249.97;;;9.29;86.28
53932;BME280;39844;52.496;13.482;2023-04-08T09:31:41;102257.75;;;9.26;85.81
53932;BME280;39844;52.496;13.482;2023-04-08T09:34:11;102257.69;;;9.23;86.47
53932;BME280;39844;52.496;13.482;2023-04-08T09:36:37;102259.44;;;9.24;86.60
53932;BME280;39844;52.496;13.482;2023-04-08T09:39:02;102261.31;;;9.28;86.32
53932;BME280;39844;52.496;13.482;2023-04-08T09:41:29;102258.00;;;9.35;87.22
53932;BME280;39844;52.496;13.482;2023-04-08T09:43:58;102259.72;;;9.33;85.25
53932;BME280;39844;52.496;13.482;2023-04-08T09:49:25;102258.50;;;9.54;85.46
53932;BME280;39844;52.496;13.482;2023-04-08T09:57:09;102247.00;;;10.21;82.05
53932;BME280;39844;52.496;13.482;2023-04-08T09:59:38;102255.88;;;10.28;80.77
53932;BME280;39844;52.496;13.482;2023-04-08T10:02:10;102252.34;;;10.26;79.40
53932;BME280;39844;52.496;13.482;2023-04-08T10:04:38;102248.72;;;10.19;80.44
53932;BME280;39844;52.496;13.482;2023-04-08T10:07:06;102256.75;;;10.27;82.05
53932;BME280;39844;52.496;13.482;2023-04-08T10:09:33;102251.72;;;10.37;81.35
53932;BME280;39844;52.496;13.482;2023-04-08T10:12:00;102264.13;;;10.44;79.84
53932;BME280;39844;52.496;13.482;2023-04-08T10:14:25;102255.44;;;10.48;79.27
53932;BME280;39844;52.496;13.482;2023-04-08T10:16:51;102263.41;;;10.53;78.32
53932;BME280;39844;52.496;13.482;2023-04-08T10:19:39;102259.31;;;10.65;79.91
53932;BME280;39844;52.496;13.482;2023-04-08T10:27:39;102259.38;;;11.13;75.21
53932;BME280;39844;52.496;13.482;2023-04-08T10:32:50;102251.66;;;11.22;74.12
53932;BME280;39844;52.496;13.482;2023-04-08T10:35:15;102256.03;;;11.22;74.38
53932;BME280;39844;52.496;13.482;2023-04-08T10:37:40;102260.63;;;11.33;74.09
53932;BME280;39844;52.496;13.482;2023-04-08T10:40:06;102259.72;;;11.33;72.26
53932;BME280;39844;52.496;13.482;2023-04-08T10:42:31;102261.47;;;11.32;71.84
53932;BME280;39844;52.496;13.482;2023-04-08T10:44:59;102257.94;;;11.32;72.34
53932;BME280;39844;52.496;13.482;2023-04-08T10:47:25;102257.00;;;11.27;71.25
53932;BME280;39844;52.496;13.482;2023-04-08T10:49:50;102263.06;;;11.24;70.93
53932;BME280;39844;52.496;13.482;2023-04-08T10:52:15;102259.81;;;11.37;72.78
53932;BME280;39844;52.496;13.482;2023-04-08T10:54:45;102255.53;;;11.44;71.58
53932;BME280;39844;52.496;13.482;2023-04-08T10:57:11;102259.44;;;11.67;72.32
53932;BME280;39844;52.496;13.482;2023-04-08T10:59:36;102253.41;;;11.71;69.54
53932;BME280;39844;52.496;13.482;2023-04-08T11:02:01;102257.94;;;11.81;69.49
53932;BME280;39844;52.496;13.482;2023-04-08T11:04:27;102249.28;;;11.88;69.19
53932;BME280;39844;52.496;13.482;2023-04-08T11:06:52;102245.91;;;11.97;69.77
53932;BME280;39844;52.496;13.482;2023-04-08T11:09:17;102246.72;;;11.91;68.43
53932;BME280;39844;52.496;13.482;2023-04-08T11:11:44;102257.94;;;11.81;68.02
53932;BME280;39844;52.496;13.482;2023-04-08T11:14:11;102262.31;;;11.79;68.59
53932;BME280;39844;52.496;13.482;2023-04-08T11:16:37;102260.53;;;11.77;69.48
53932;BME280;39844;52.496;13.482;2023-04-08T11:19:04;102263.88;;;11.70;68.38
53932;BME280;39844;52.496;13.482;2023-04-08T11:21:31;102248.84;;;11.63;68.57
53932;BME280;39844;52.496;13.482;2023-04-08T11:23:56;102264.59;;;11.61;68.17
53932;BME280;39844;52.496;13.482;2023-04-08T11:26:22;102264.84;;;11.75;70.02
53932;BME280;39844;52.496;13.482;2023-04-08T11:28:49;102250.19;;;11.89;68.25
53932;BME280;39844;52.496;13.482;2023-04-08T11:31:15;102256.34;;;11.91;67.29
53932;BME280;39844;52.496;13.482;2023-04-08T11:33:47;102254.56;;;11.90;65.98
53932;BME280;39844;52.496;13.482;2023-04-08T11:36:13;102263.41;;;11.95;68.07
53932;BME280;39844;52.496;13.482;2023-04-08T11:38:39;102267.03;;;12.01;66.10
53932;BME280;39844;52.496;13.482;2023-04-08T11:41:04;102267.94;;;12.02;65.39
53932;BME280;39844;52.496;13.482;2023-04-08T11:43:30;102258.25;;;12.02;65.41
53932;BME280;39844;52.496;13.482;2023-04-08T11:45:55;102258.34;;;12.09;64.85
53932;BME280;39844;52.496;13.482;2023-04-08T11:48:21;102255.63;;;12.02;64.11
53932;BME280;39844;52.496;13.482;2023-04-08T11:50:46;102260.16;;;12.11;65.44
53932;BME280;39844;52.496;13.482;2023-04-08T11:53:19;102251.41;;;12.12;63.16
53932;BME280;39844;52.496;13.482;2023-04-08T11:55:44;102255.88;;;12.21;63.11
53932;BME280;39844;52.496;13.482;2023-04-08T11:58:10;102256.97;;;12.35;63.68
53932;BME280;39844;52.496;13.482;2023-04-08T12:00:35;102251.56;;;12.95;61.83
53932;BME280;39844;52.496;13.482;2023-04-08T12:03:01;102238.97;;;13.54;61.38
53932;BME280;39844;52.496;13.482;2023-04-08T12:05:26;102238.63;;;14.30;60.53
53932;BME280;39844;52.496;13.482;2023-04-08T12:07:51;102238.91;;;14.92;54.28
53932;BME280;39844;52.496;13.482;2023-04-08T12:10:16;102243.31;;;14.99;53.71
53932;BME280;39844;52.496;13.482;2023-04-08T12:12:42;102239.78;;;15.06;52.09
53932;BME280;39844;52.496;13.482;2023-04-08T12:15:07;102242.38;;;14.81;51.09
53932;BME280;39844;52.496;13.482;2023-04-08T12:17:33;102243.13;;;14.45;51.70
53932;BME280;39844;52.496;13.482;2023-04-08T12:19:59;102237.63;;;14.12;52.82
53932;BME280;39844;52.496;13.482;2023-04-08T12:22:24;102246.38;;;14.05;55.09
53932;BME280;39844;52.496;13.482;2023-04-08T12:24:50;102244.88;;;14.44;54.83
53932;BME280;39844;52.496;13.482;2023-04-08T12:27:15;102243.19;;;14.63;52.91
53932;BME280;39844;52.496;13.482;2023-04-08T12:29:40;102250.28;;;14.73;51.00
53932;BME280;39844;52.496;13.482;2023-04-08T12:32:05;102249.38;;;14.68;50.47
53932;BME280;39844;52.496;13.482;2023-04-08T12:34:31;102241.41;;;14.56;51.71
53932;BME280;39844;52.496;13.482;2023-04-08T12:36:56;102245.78;;;14.52;51.21
53932;BME280;39844;52.496;13.482;2023-04-08T12:39:22;102244.00;;;14.41;52.24
53932;BME280;39844;52.496;13.482;2023-04-08T12:41:47;102243.88;;;14.29;51.69
53932;BME280;39844;52.496;13.482;2023-04-08T12:44:12;102240.34;;;14.25;51.94
53932;BME280;39844;52.496;13.482;2023-04-08T12:46:38;102237.81;;;14.36;52.00
53932;BME280;39844;52.496;13.482;2023-04-08T12:49:03;102235.97;;;14.26;51.21
53932;BME280;39844;52.496;13.482;2023-04-08T12:51:28;102241.25;;;14.26;52.27
53932;BME280;39844;52.496;13.482;2023-04-08T12:53:54;102231.72;;;14.53;51.05
53932;BME280;39844;52.496;13.482;2023-04-08T12:56:19;102224.66;;;14.55;51.04
53932;BME280;39844;52.496;13.482;2023-04-08T12:58:44;102237.03;;;14.67;50.14